Time;durP1;ratioP1;P1;durP2;ratioP2;P2;SDS_P1;SDS_P2;PMS_P1;PMS_P2;Temp;Humidity;BMP_temperature;BMP_pressure;BME280_temperature;BME280_humidity;BME280_pressure;Samples;Min_cycle;Max_cycle;Signal;HPM_P1;HPM_P2
2022/06/22 00:02:14;;;;;;;15.52;7.82;;;;;;;13.86;100.00;101347.19;5008649;28;20029;-46
2022/06/22 00:04:50;;;;;;;13.13;7.28;;;;;;;13.75;100.00;101343.03;4999103;28;20371;-49
2022/06/22 00:07:38;;;;;;;20.95;7.38;;;;;;;13.72;100.00;101338.00;4998250;28;20076;-50
2022/06/22 00:10:53;;;;;;;14.95;8.27;;;;;;;13.75;100.00;101326.94;4997455;28;20080;-50
2022/06/22 00:13:26;;;;;;;12.48;7.75;;;;;;;13.68;100.00;101321.41;5003532;28;20342;-49
2022/06/22 00:15:57;;;;;;;13.82;8.50;;;;;;;13.66;100.00;101317.19;5010216;28;20029;-48
2022/06/22 00:18:45;;;;;;;15.00;8.20;;;;;;;13.67;100.00;101316.19;5016743;28;20026;-47
2022/06/22 00:21:40;;;;;;;14.73;9.02;;;;;;;13.64;100.00;101320.03;5017312;28;20025;-46
2022/06/22 00:24:23;;;;;;;16.48;9.00;;;;;;;13.65;100.00;101326.28;5017942;28;20139;-47
2022/06/22 00:26:58;;;;;;;17.00;9.48;;;;;;;13.56;100.00;101320.91;5017215;28;20401;-45
2022/06/22 00:29:33;;;;;;;16.83;9.13;;;;;;;13.55;100.00;101315.72;5017691;28;20029;-46
2022/06/22 00:32:02;;;;;;;17.70;9.77;;;;;;;13.47;100.00;101307.66;5016826;28;20330;-47
2022/06/22 00:34:31;;;;;;;21.33;10.02;;;;;;;13.48;100.00;101303.97;4997222;28;20033;-46
2022/06/22 00:37:12;;;;;;;16.88;10.10;;;;;;;13.47;100.00;101302.28;5009685;28;21067;-45
2022/06/22 00:39:42;;;;;;;24.35;10.50;;;;;;;13.40;100.00;101302.94;4998142;28;20034;-47
2022/06/22 00:42:18;;;;;;;17.88;11.07;;;;;;;13.41;100.00;101307.31;5024993;28;20087;-47
2022/06/22 00:45:08;;;;;;;17.92;10.25;;;;;;;13.43;100.00;101302.63;5013341;28;20041;-45
2022/06/22 00:47:36;;;;;;;21.80;11.35;;;;;;;13.40;100.00;101305.63;4999619;28;20033;-47
2022/06/22 00:50:13;;;;;;;17.23;10.73;;;;;;;13.39;100.00;101303.97;4997487;28;20041;-46
2022/06/22 00:52:40;;;;;;;22.08;11.68;;;;;;;13.38;100.00;101291.56;4997377;28;20113;-49
2022/06/22 00:55:29;;;;;;;23.30;12.35;;;;;;;13.36;100.00;101301.63;4996827;28;20025;-47
2022/06/22 00:58:01;;;;;;;19.95;11.43;;;;;;;13.35;100.00;101310.66;5012443;28;20033;-46
2022/06/22 01:00:30;;;;;;;26.52;12.23;;;;;;;13.32;100.00;101305.63;4997356;28;20053;-47
2022/06/22 01:03:04;;;;;;;19.25;11.95;;;;;;;13.32;100.00;101308.31;4995702;28;20040;-46
2022/06/22 01:05:36;;;;;;;23.20;12.02;;;;;;;13.30;100.00;101302.25;5003020;28;20515;-47
2022/06/22 01:08:28;;;;;;;18.20;11.35;;;;;;;13.30;100.00;101304.94;5010728;28;20026;-46
2022/06/22 01:11:03;;;;;;;20.60;12.00;;;;;;;13.28;100.00;101309.63;5016760;28;20144;-46
2022/06/22 01:13:33;;;;;;;25.50;12.38;;;;;;;13.23;100.00;101314.66;5014283;28;20537;-47
2022/06/22 01:16:04;;;;;;;23.10;11.65;;;;;;;13.25;100.00;101312.66;5002608;28;20037;-46
2022/06/22 01:18:43;;;;;;;24.90;12.35;;;;;;;13.23;100.00;101303.94;5002753;28;20507;-46
2022/06/22 01:21:18;;;;;;;18.80;11.82;;;;;;;13.23;100.00;101295.88;5011465;28;20029;-46
2022/06/22 01:24:00;;;;;;;23.50;12.50;;;;;;;13.19;100.00;101302.59;5011577;28;20040;-45
2022/06/22 01:26:45;;;;;;;18.88;11.73;;;;;;;13.17;100.00;101309.97;5008233;28;20413;-47
2022/06/22 01:29:16;;;;;;;24.35;12.10;;;;;;;13.11;100.00;101318.69;5016606;28;20388;-47
2022/06/22 01:31:50;;;;;;;24.30;12.68;;;;;;;13.07;100.00;101321.69;5016160;28;20053;-46
2022/06/22 01:34:17;;;;;;;23.70;13.02;;;;;;;13.09;100.00;101326.06;5015323;28;20268;-46
2022/06/22 01:36:43;;;;;;;22.85;12.48;;;;;;;13.03;100.00;101316.81;5011382;28;20021;-48
2022/06/22 01:39:11;;;;;;;23.75;12.55;;;;;;;13.02;100.00;101313.31;5007258;28;20029;-46
2022/06/22 01:41:53;;;;;;;20.73;12.18;;;;;;;13.04;100.00;101303.25;4996149;28;20026;-48
2022/06/22 01:44:33;;;;;;;23.83;12.13;;;;;;;13.01;100.00;101287.50;5005235;28;20029;-49
2022/06/22 01:47:15;;;;;;;18.58;12.65;;;;;;;13.00;100.00;101288.50;5010888;28;20353;-46
2022/06/22 01:49:48;;;;;;;24.10;12.48;;;;;;;12.99;100.00;101284.16;5005075;28;20221;-46
2022/06/22 01:52:36;;;;;;;26.83;13.05;;;;;;;12.95;100.00;101280.13;4996592;28;20072;-46
2022/06/22 01:55:11;;;;;;;20.38;12.70;;;;;;;12.92;100.00;101267.06;4995535;28;20113;-45
2022/06/22 01:57:45;;;;;;;25.42;13.45;;;;;;;12.85;100.00;101269.56;4995423;28;20159;-46
2022/06/22 02:00:13;;;;;;;20.00;12.90;;;;;;;12.81;100.00;101270.91;4996338;28;20030;-47
2022/06/22 02:02:45;;;;;;;24.75;13.50;;;;;;;12.84;100.00;101275.09;5027098;28;20161;-47
2022/06/22 02:05:50;;;;;;;18.35;12.77;;;;;;;12.83;100.00;101284.97;5016070;28;20109;-46
2022/06/22 02:08:29;;;;;;;25.35;13.30;;;;;;;12.80;100.00;101282.63;5007258;28;20124;-47
2022/06/22 02:11:18;;;;;;;27.27;13.30;;;;;;;12.77;100.00;101282.94;4998226;28;20282;-47
2022/06/22 02:13:56;;;;;;;21.90;13.02;;;;;;;12.79;100.00;101282.78;4996409;28;20083;-46
2022/06/22 02:16:26;;;;;;;25.50;13.50;;;;;;;12.78;100.00;101287.31;4996161;28;20053;-48
2022/06/22 02:18:58;;;;;;;27.42;12.93;;;;;;;12.77;100.00;101282.94;5001406;28;20515;-46
2022/06/22 02:21:34;;;;;;;25.40;13.00;;;;;;;12.74;100.00;101279.75;5013209;28;20041;-46
2022/06/22 02:24:03;;;;;;;18.48;12.77;;;;;;;12.74;100.00;101288.63;4997896;28;20087;-48
2022/06/22 02:26:37;;;;;;;24.08;13.43;;;;;;;12.67;100.00;101279.56;4994902;28;20427;-47
2022/06/22 02:29:03;;;;;;;25.20;13.77;;;;;;;12.67;100.00;101288.44;4995450;28;20072;-46
2022/06/22 02:31:28;;;;;;;23.50;13.13;;;;;;;12.67;100.00;101275.03;5006795;28;20049;-45
2022/06/22 02:33:56;;;;;;;22.92;13.35;;;;;;;12.64;100.00;101263.81;5013880;28;20029;-45
2022/06/22 02:36:27;;;;;;;22.27;13.15;;;;;;;12.63;100.00;101262.16;5014998;28;20040;-48
2022/06/22 02:38:55;;;;;;;22.80;12.95;;;;;;;12.61;100.00;101256.97;5010602;28;20021;-49
2022/06/22 02:44:32;;;;;;;22.13;13.82;;;;;;;12.58;100.00;101243.88;5008805;28;20068;-46
2022/06/22 02:47:31;;;;;;;29.53;13.80;;;;;;;12.57;100.00;101247.56;5002170;28;20499;-48
2022/06/22 02:50:12;;;;;;;21.50;13.32;;;;;;;12.54;100.00;101239.84;5010292;28;20048;-46
2022/06/22 02:52:42;;;;;;;22.17;14.10;;;;;;;12.50;100.00;101249.22;5014793;28;20380;-48
2022/06/22 02:55:12;;;;;;;21.70;13.30;;;;;;;12.49;100.00;101247.53;5014077;28;20042;-46
2022/06/22 02:57:56;;;;;;;25.67;13.65;;;;;;;12.50;100.00;101252.72;5015136;28;20353;-49
2022/06/22 03:00:34;;;;;;;26.85;13.70;;;;;;;12.49;100.00;101247.53;5014391;28;20026;-49
2022/06/22 03:03:06;;;;;;;27.67;14.85;;;;;;;12.48;100.00;101259.28;5013559;28;20030;-45
2022/06/22 03:05:34;;;;;;;22.65;13.85;;;;;;;12.46;100.00;101253.25;5014780;28;20048;-48
2022/06/22 03:08:01;;;;;;;21.33;13.70;;;;;;;12.43;100.00;101250.88;5014361;28;20391;-49
2022/06/22 03:10:31;;;;;;;30.60;13.68;;;;;;;12.43;100.00;101254.41;5012392;28;20025;-46
2022/06/22 03:13:00;;;;;;;32.72;15.40;;;;;;;12.41;100.00;101268.97;5013502;28;20032;-48
2022/06/22 03:15:30;;;;;;;28.38;14.10;;;;;;;12.44;100.00;101268.63;5012058;28;20484;-51
2022/06/22 03:17:59;;;;;;;32.38;15.52;;;;;;;12.43;100.00;101275.00;5013647;28;20103;-49
2022/06/22 03:20:27;;;;;;;26.92;14.85;;;;;;;12.39;100.00;101273.63;5014644;28;20029;-45
2022/06/22 03:22:58;;;;;;;25.55;14.52;;;;;;;12.31;100.00;101269.94;5005943;28;20120;-51
2022/06/22 03:25:36;;;;;;;24.95;14.25;;;;;;;12.35;100.00;101283.00;5014067;28;20021;-49
2022/06/22 03:28:08;;;;;;;29.02;14.32;;;;;;;12.28;100.00;101262.22;5014416;28;20044;-47
2022/06/22 03:30:48;;;;;;;26.50;13.95;;;;;;;12.29;100.00;101260.38;5014005;28;20132;-47
2022/06/22 03:33:19;;;;;;;26.30;14.18;;;;;;;12.23;100.00;101256.50;5013480;28;20452;-47
2022/06/22 03:35:50;;;;;;;27.50;13.90;;;;;;;12.21;100.00;101261.19;5029469;28;20248;-49
2022/06/22 03:38:20;;;;;;;26.70;14.00;;;;;;;12.20;100.00;101261.34;5017195;28;20060;-48
2022/06/22 03:40:49;;;;;;;25.33;14.13;;;;;;;12.19;100.00;101263.19;5009855;28;20034;-45
2022/06/22 03:43:22;;;;;;;26.73;13.93;;;;;;;12.12;100.00;101254.97;5013425;28;20107;-48
2022/06/22 03:45:53;;;;;;;22.98;13.32;;;;;;;12.13;100.00;101256.66;5009599;28;20025;-47
2022/06/22 03:48:29;;;;;;;22.00;13.77;;;;;;;12.14;100.00;101252.13;5014640;28;20406;-49
2022/06/22 03:51:10;;;;;;;28.63;15.07;;;;;;;12.16;100.00;101249.28;5016903;28;20133;-46
2022/06/22 03:53:42;;;;;;;25.08;14.48;;;;;;;12.19;100.00;101243.63;5018184;28;20033;-46
2022/06/22 03:56:14;;;;;;;25.70;14.18;;;;;;;12.18;100.00;101240.09;5016330;28;20025;-47
2022/06/22 03:58:42;;;;;;;23.80;13.85;;;;;;;12.20;100.00;101240.75;5010736;28;20032;-46
2022/06/22 04:01:10;;;;;;;23.75;14.50;;;;;;;12.22;100.00;101240.59;5030196;28;20556;-46
2022/06/22 04:03:36;;;;;;;23.33;14.35;;;;;;;12.25;100.00;101245.63;5016794;28;20049;-47
2022/06/22 04:06:03;;;;;;;25.48;14.60;;;;;;;12.28;100.00;101243.47;5017604;28;20052;-45
2022/06/22 04:08:40;;;;;;;22.15;12.88;;;;;;;12.30;100.00;101235.25;5015740;28;20468;-48
2022/06/22 04:11:15;;;;;;;22.33;14.07;;;;;;;12.22;100.00;101237.91;5016421;28;20744;-46
2022/06/22 04:13:42;;;;;;;25.02;12.93;;;;;;;12.16;100.00;101230.53;5018222;28;20479;-45
2022/06/22 04:16:18;;;;;;;19.48;13.95;;;;;;;12.21;100.00;101241.59;5017577;28;20135;-49
2022/06/22 04:18:53;;;;;;;42.60;16.80;;;;;;;12.27;100.00;101243.63;5017144;28;20061;-47
2022/06/22 04:21:41;;;;;;;25.90;14.68;;;;;;;12.34;100.00;101246.50;5014512;28;20033;-46
2022/06/22 04:24:24;;;;;;;26.55;15.23;;;;;;;12.39;100.00;101241.47;5015290;28;20025;-46
2022/06/22 04:26:58;;;;;;;31.23;15.30;;;;;;;12.45;100.00;101243.53;5017293;28;20025;-45
2022/06/22 04:29:35;;;;;;;26.98;15.13;;;;;;;12.50;100.00;101242.00;5016413;28;20259;-46
2022/06/22 04:32:23;;;;;;;27.40;15.45;;;;;;;12.59;100.00;101234.84;5013931;28;20128;-47
2022/06/22 04:35:23;;;;;;;29.10;16.20;;;;;;;12.67;100.00;101256.28;5017363;28;20494;-48
2022/06/22 04:38:10;;;;;;;32.22;17.77;;;;;;;12.69;100.00;101256.97;4991903;28;20113;-48
2022/06/22 04:40:48;;;;;;;29.60;16.13;;;;;;;12.73;100.00;101259.31;5009603;28;20099;-47
2022/06/22 04:43:14;;;;;;;28.90;16.83;;;;;;;12.76;100.00;101262.50;5026574;28;20037;-45
2022/06/22 04:45:42;;;;;;;33.58;18.20;;;;;;;12.81;100.00;101270.03;5015714;28;20337;-49
2022/06/22 04:48:14;;;;;;;31.42;17.17;;;;;;;12.83;100.00;101268.03;5015365;28;20052;-48
2022/06/22 04:50:42;;;;;;;35.08;18.67;;;;;;;12.84;100.00;101261.69;5015538;28;20045;-46
2022/06/22 04:53:34;;;;;;;35.70;18.17;;;;;;;12.91;100.00;101264.53;5013112;28;20491;-48
2022/06/22 04:56:04;;;;;;;29.10;17.25;;;;;;;12.96;100.00;101271.06;5015429;28;20037;-46
2022/06/22 04:58:41;;;;;;;33.50;17.98;;;;;;;13.02;100.00;101275.78;5015971;28;20021;-45
2022/06/22 05:01:13;;;;;;;34.58;19.60;;;;;;;13.07;100.00;101269.91;5022975;28;20071;-46
2022/06/22 05:03:38;;;;;;;40.80;20.08;;;;;;;13.10;100.00;101268.72;5025847;28;20028;-46
2022/06/22 05:06:14;;;;;;;35.47;20.70;;;;;;;13.16;100.00;101273.44;5031681;28;20430;-47
2022/06/22 05:08:56;;;;;;;36.33;20.25;;;;;;;13.24;100.00;101285.00;5025315;28;20584;-46
2022/06/22 05:11:26;;;;;;;35.25;19.83;;;;;;;13.32;100.00;101288.72;5012998;28;20353;-47
2022/06/22 05:13:55;;;;;;;36.55;21.25;;;;;;;13.38;100.00;101299.59;5020025;28;20488;-44
2022/06/22 05:16:24;;;;;;;37.22;20.30;;;;;;;13.46;100.00;101295.22;5031201;28;20021;-43
2022/06/22 05:18:51;;;;;;;36.95;20.80;;;;;;;13.55;100.00;101296.91;5028273;28;20112;-49
2022/06/22 05:21:28;;;;;;;34.63;21.15;;;;;;;13.59;100.00;101299.09;5026334;28;20072;-46
2022/06/22 05:23:56;;;;;;;36.13;20.17;;;;;;;13.68;100.00;101301.75;5027014;28;20044;-44
2022/06/22 05:26:24;;;;;;;38.30;20.33;;;;;;;13.78;100.00;101307.78;5033792;28;20021;-49
2022/06/22 05:29:11;;;;;;;35.58;20.52;;;;;;;13.87;100.00;101303.25;5027081;28;20029;-46
2022/06/22 05:31:39;;;;;;;42.38;22.23;;;;;;;13.93;100.00;101299.84;5015223;28;20125;-48
2022/06/22 05:34:10;;;;;;;33.60;20.52;;;;;;;13.99;100.00;101302.69;5015580;28;20109;-46
2022/06/22 05:36:46;;;;;;;36.95;20.50;;;;;;;14.07;100.00;101312.59;5027938;28;20140;-47
2022/06/22 05:39:12;;;;;;;38.42;21.38;;;;;;;14.14;100.00;101308.19;5011580;28;20037;-44
2022/06/22 05:41:42;;;;;;;36.67;20.92;;;;;;;14.21;100.00;101302.97;5011131;28;20040;-46
2022/06/22 05:44:12;;;;;;;37.95;21.25;;;;;;;14.26;100.00;101305.97;5024245;28;20132;-47
2022/06/22 05:46:40;;;;;;;37.77;21.07;;;;;;;14.35;100.00;101306.75;5027362;28;20076;-45
2022/06/22 05:49:15;;;;;;;35.35;21.65;;;;;;;14.44;100.00;101311.06;5016630;28;20041;-45
2022/06/22 05:51:54;;;;;;;33.78;20.45;;;;;;;14.52;100.00;101300.28;5005839;28;20364;-45
2022/06/22 05:54:22;;;;;;;38.28;21.17;;;;;;;14.62;100.00;101301.97;5016627;28;20090;-46
2022/06/22 05:56:59;;;;;;;36.75;21.38;;;;;;;14.71;100.00;101304.44;5011240;28;20025;-44
2022/06/22 05:59:41;;;;;;;35.60;19.95;;;;;;;14.82;100.00;101303.19;5014359;28;20029;-45
2022/06/22 06:02:44;;;;;;;32.83;20.13;;;;;;;14.91;100.00;101317.41;5009666;28;20028;-45
2022/06/22 06:05:25;;;;;;;37.92;20.55;;;;;;;15.04;100.00;101320.34;5014729;28;20135;-45
2022/06/22 06:07:55;;;;;;;37.08;19.52;;;;;;;15.13;100.00;101329.19;5007406;28;20032;-48
2022/06/22 06:10:32;;;;;;;31.45;18.63;;;;;;;15.27;100.00;101332.97;5007321;28;20041;-48
2022/06/22 06:13:02;;;;;;;39.45;19.52;;;;;;;15.35;100.00;101329.38;5018458;28;20063;-48
2022/06/22 06:15:36;;;;;;;34.30;18.65;;;;;;;15.43;100.00;101335.53;5015711;28;20033;-46
2022/06/22 06:18:03;;;;;;;33.38;18.20;;;;;;;15.52;100.00;101336.28;5009169;28;20052;-45
2022/06/22 06:20:39;;;;;;;36.58;17.92;;;;;;;15.59;100.00;101337.22;5014129;28;20025;-45
2022/06/22 06:23:23;;;;;;;35.35;17.60;;;;;;;15.74;100.00;101345.34;5010173;28;20482;-45
2022/06/22 06:29:03;;;;;;;36.33;18.52;;;;;;;16.07;100.00;101346.91;5009190;28;20137;-47
2022/06/22 06:31:36;;;;;;;31.50;18.60;;;;;;;16.20;100.00;101342.53;5008730;28;20132;-44
2022/06/22 06:34:09;;;;;;;35.95;18.05;;;;;;;16.31;100.00;101335.84;5007212;28;20087;-48
2022/06/22 06:36:52;;;;;;;39.85;18.05;;;;;;;16.44;100.00;101329.78;5015708;28;20095;-46
2022/06/22 06:39:23;;;;;;;34.50;17.17;;;;;;;16.65;100.00;101337.09;5015412;28;20163;-45
2022/06/22 06:42:18;;;;;;;33.42;16.95;;;;;;;16.88;100.00;101331.56;5014571;28;20412;-46
2022/06/22 06:44:44;;;;;;;30.42;16.15;;;;;;;17.01;100.00;101322.81;5015842;28;20028;-47
2022/06/22 06:47:15;;;;;;;36.95;17.98;;;;;;;17.14;100.00;101327.47;5015202;28;20029;-47
2022/06/22 06:49:47;;;;;;;35.17;16.67;;;;;;;17.21;100.00;101328.41;5023327;28;20634;-44
2022/06/22 06:52:21;;;;;;;29.00;16.38;;;;;;;17.32;100.00;101335.13;5021625;28;20018;-49
2022/06/22 06:55:03;;;;;;;27.15;16.42;;;;;;;17.46;100.00;101325.28;5014092;28;20067;-46
2022/06/22 06:57:30;;;;;;;32.33;16.65;;;;;;;17.57;100.00;101313.13;5013959;28;20108;-46
2022/06/22 07:00:00;;;;;;;28.52;15.57;;;;;;;17.71;100.00;101310.31;5013199;28;20033;-45
2022/06/22 07:02:34;;;;;;;32.42;16.60;;;;;;;17.96;100.00;101306.38;5014014;28;20051;-46
2022/06/22 07:05:03;;;;;;;35.95;16.42;;;;;;;18.19;100.00;101312.28;5014708;28;20037;-50
2022/06/22 07:07:50;;;;;;;28.20;16.10;;;;;;;18.31;100.00;101304.44;5014968;28;20045;-47
2022/06/22 07:10:33;;;;;;;25.80;15.93;;;;;;;18.36;100.00;101293.84;5013011;28;20044;-46
2022/06/22 07:13:01;;;;;;;23.60;14.85;;;;;;;18.49;99.03;101301.19;5017223;28;20021;-47
2022/06/22 07:15:37;;;;;;;24.30;15.60;;;;;;;18.65;100.00;101300.00;5018745;28;20048;-46
2022/06/22 07:18:17;;;;;;;26.48;16.25;;;;;;;18.55;97.49;101303.09;5014288;28;20024;-48
2022/06/22 07:20:47;;;;;;;29.92;16.17;;;;;;;18.54;99.62;101306.00;5017141;28;20029;-47
2022/06/22 07:23:20;;;;;;;24.45;16.23;;;;;;;18.67;99.13;101302.50;5016441;28;20037;-50
2022/06/22 07:25:57;;;;;;;29.60;16.83;;;;;;;18.89;99.91;101304.06;5015684;28;20094;-50
2022/06/22 07:28:53;;;;;;;30.55;16.58;;;;;;;19.04;97.69;101294.91;5016038;28;20449;-49
2022/06/22 07:31:28;;;;;;;37.85;17.23;;;;;;;19.19;98.82;101298.25;4987889;28;20061;-61
2022/06/22 07:34:34;;;;;;;25.70;15.98;;;;;;;19.29;97.43;101290.56;5014751;28;20524;-46
2022/06/22 07:37:09;;;;;;;28.58;15.27;;;;;;;19.37;96.06;101287.66;5012103;28;20037;-48
2022/06/22 07:40:07;;;;;;;32.70;16.85;;;;;;;19.44;96.66;101284.09;5016961;28;20543;-44
2022/06/22 07:42:33;;;;;;;33.22;16.60;;;;;;;19.35;95.80;101273.47;5018382;28;20033;-46
2022/06/22 07:44:58;;;;;;;23.98;15.38;;;;;;;19.35;96.47;101275.38;5018161;28;20036;-47
2022/06/22 07:47:49;;;;;;;26.27;15.25;;;;;;;19.37;96.71;101281.41;5017213;28;20156;-47
2022/06/22 07:50:19;;;;;;;28.45;14.93;;;;;;;19.23;93.61;101277.00;5016328;28;20087;-47
2022/06/22 07:52:57;;;;;;;36.42;15.20;;;;;;;19.09;93.25;101287.00;5018020;28;20044;-46
2022/06/22 07:55:45;;;;;;;24.08;14.90;;;;;;;19.06;92.68;101290.13;5016605;28;20432;-46
2022/06/22 07:58:28;;;;;;;33.40;15.18;;;;;;;19.14;94.22;101300.75;4976545;28;20558;-48
2022/06/22 08:00:59;;;;;;;29.33;14.50;;;;;;;19.15;92.66;101292.44;5013517;28;20178;-44
2022/06/22 08:03:49;;;;;;;29.60;15.10;;;;;;;19.17;92.63;101293.03;5004069;28;20463;-49
2022/06/22 08:06:20;;;;;;;29.08;14.20;;;;;;;19.23;92.13;101288.69;5013864;28;20045;-46
2022/06/22 08:08:53;;;;;;;;;;;;;;;19.38;93.76;101289.31;5017430;28;20073;-46
2022/06/22 08:11:36;;;;;;;26.77;13.27;;;;;;;19.45;92.48;101293.88;5017041;28;19909;-45
2022/06/22 08:14:13;;;;;;;32.35;13.55;;;;;;;19.65;94.11;101297.41;5018120;28;20049;-44
2022/06/22 08:16:52;;;;;;;23.17;13.38;;;;;;;19.84;90.28;101294.91;5016715;28;20059;-46
2022/06/22 08:19:19;;;;;;;25.42;13.10;;;;;;;19.94;90.81;101285.31;5016265;28;20384;-47
2022/06/22 08:21:48;;;;;;;26.58;12.23;;;;;;;20.11;88.59;101291.09;5014755;28;20116;-46
2022/06/22 08:24:18;;;;;;;23.85;12.65;;;;;;;20.26;86.83;101295.41;5017282;28;20049;-45
2022/06/22 08:26:45;;;;;;;26.88;11.77;;;;;;;20.42;90.12;101294.94;5015592;28;20450;-44
2022/06/22 08:29:11;;;;;;;30.75;11.82;;;;;;;20.58;91.36;101301.75;5015826;28;20018;-45
2022/06/22 08:31:54;;;;;;;25.85;11.65;;;;;;;20.80;86.05;101298.75;5013685;28;20073;-46
2022/06/22 08:34:29;;;;;;;28.15;11.68;;;;;;;20.94;82.10;101300.31;5011527;28;20037;-45
2022/06/22 08:37:05;;;;;;;23.25;11.25;;;;;;;21.03;81.41;101296.28;5016576;28;20155;-48
2022/06/22 08:39:48;;;;;;;23.45;10.13;;;;;;;21.27;80.81;101299.25;5016738;28;20124;-46
2022/06/22 08:43:03;;;;;;;23.92;10.50;;;;;;;21.47;81.91;101307.28;5016904;28;20025;-49
2022/06/22 08:45:34;;;;;;;25.52;9.30;;;;;;;21.53;73.78;101303.66;5017774;28;20147;-45
2022/06/22 08:48:15;;;;;;;20.27;8.60;;;;;;;21.59;76.21;101305.50;5016391;28;20415;-46
2022/06/22 08:51:02;;;;;;;18.95;8.25;;;;;;;21.74;76.71;101297.00;5017528;28;20104;-45
2022/06/22 08:53:58;;;;;;;16.58;7.82;;;;;;;21.97;77.68;101303.66;5009279;28;20041;-44
2022/06/22 08:56:33;;;;;;;14.73;7.43;;;;;;;22.12;74.78;101298.66;5015491;28;20071;-45
2022/06/22 08:59:22;;;;;;;16.60;6.93;;;;;;;22.31;70.44;101310.41;5016770;28;20542;-45
2022/06/22 09:02:26;;;;;;;13.90;6.88;;;;;;;22.41;63.53;101306.31;5016004;28;20085;-48
2022/06/22 09:05:06;;;;;;;17.08;6.10;;;;;;;22.45;59.96;101293.91;4980644;28;20470;-45
2022/06/22 09:07:39;;;;;;;15.60;5.13;;;;;;;22.38;57.14;101285.81;5016442;28;20025;-48
2022/06/22 09:10:23;;;;;;;15.05;5.07;;;;;;;22.53;60.63;101280.81;5015298;28;20276;-47
2022/06/22 09:13:00;;;;;;;15.73;6.15;;;;;;;22.75;60.30;101293.91;5015169;28;20045;-46
2022/06/22 09:15:33;;;;;;;15.18;6.30;;;;;;;22.91;60.62;101296.00;5016938;28;20127;-46
2022/06/22 09:17:58;;;;;;;10.98;6.72;;;;;;;22.89;60.29;101292.63;5016526;28;20064;-46
2022/06/22 09:20:41;;;;;;;18.40;6.83;;;;;;;22.94;60.56;101291.94;5016953;28;20491;-48
2022/06/22 09:23:27;;;;;;;11.48;5.97;;;;;;;22.97;55.32;101302.38;5013605;28;20343;-47
2022/06/22 09:26:06;;;;;;;15.35;4.93;;;;;;;23.22;57.10;101299.53;5007068;28;20021;-47
2022/06/22 09:28:42;;;;;;;12.07;4.47;;;;;;;23.48;56.16;101310.22;5015534;28;20099;-46
2022/06/22 09:31:18;;;;;;;14.45;5.05;;;;;;;23.51;55.57;101301.56;5016387;28;20178;-50
2022/06/22 09:33:54;;;;;;;10.63;5.18;;;;;;;23.61;52.37;101310.81;5011841;28;20075;-45
2022/06/22 09:36:33;;;;;;;14.65;5.13;;;;;;;23.73;53.95;101307.28;5006114;28;20049;-49
2022/06/22 09:39:20;;;;;;;15.82;4.95;;;;;;;23.91;55.28;101311.78;5015847;28;20032;-47
2022/06/22 09:42:12;;;;;;;21.92;4.50;;;;;;;24.10;49.95;101318.75;5015886;28;20025;-46
2022/06/22 09:44:55;;;;;;;17.15;4.68;;;;;;;24.25;49.60;101311.94;4991722;28;20029;-48
2022/06/22 09:47:37;;;;;;;14.80;5.43;;;;;;;24.34;52.46;101313.25;5016559;28;20488;-46
2022/06/22 09:50:26;;;;;;;16.92;5.03;;;;;;;24.29;48.20;101318.59;5015001;28;20026;-46
2022/06/22 09:53:07;;;;;;;16.63;4.07;;;;;;;24.35;47.61;101321.16;5015634;28;20390;-45
2022/06/22 09:56:19;;;;;;;11.85;4.40;;;;;;;24.44;49.60;101326.25;5066467;27;20386;-43
2022/06/22 09:59:02;;;;;;;12.25;4.53;;;;;;;24.47;47.99;101318.41;5029236;28;20072;-46
2022/06/22 10:02:06;;;;;;;14.88;4.07;;;;;;;24.73;49.49;101314.31;5050469;28;20028;-46
2022/06/22 10:04:50;;;;;;;12.27;4.18;;;;;;;24.90;48.38;101308.88;5051664;28;20032;-45
2022/06/22 10:07:27;;;;;;;14.63;4.68;;;;;;;24.99;47.57;101305.75;5051848;28;20109;-48
2022/06/22 10:10:01;;;;;;;11.10;4.65;;;;;;;25.12;46.33;101308.19;5051166;28;20626;-47
2022/06/22 10:12:57;;;;;;;16.45;4.68;;;;;;;25.13;45.11;101309.81;5052030;28;20365;-49
2022/06/22 10:15:53;;;;;;;11.82;3.70;;;;;;;25.18;46.88;101304.44;5052189;28;20557;-50
2022/06/22 10:18:42;;;;;;;13.80;4.55;;;;;;;25.31;44.14;101301.41;5051774;28;20051;-47
2022/06/22 10:21:26;;;;;;;8.50;4.18;;;;;;;25.40;47.20;101309.19;5052257;28;20032;-46
2022/06/22 10:24:05;;;;;;;11.27;3.80;;;;;;;25.48;44.24;101298.66;5044465;28;20133;-45
2022/06/22 10:26:52;;;;;;;11.85;4.03;;;;;;;25.58;44.36;101302.66;5031401;28;20044;-45
2022/06/22 10:29:45;;;;;;;12.52;3.72;;;;;;;25.74;44.16;101290.84;5044500;28;20035;-47
2022/06/22 10:32:19;;;;;;;10.88;3.65;;;;;;;25.99;47.05;101289.56;5038161;28;20048;-58
2022/06/22 10:35:22;;;;;;;10.25;4.00;;;;;;;26.06;45.33;101292.94;5037653;28;20407;-48
2022/06/22 10:38:24;;;;;;;11.38;4.60;;;;;;;25.69;41.55;101283.38;5034696;28;20028;-47
2022/06/22 10:47:01;;;;;;;11.52;3.50;;;;;;;25.79;41.74;101270.94;5051714;28;20042;-50
2022/06/22 10:49:50;;;;;;;7.15;3.38;;;;;;;26.04;42.06;101279.50;5050552;28;20036;-47
2022/06/22 10:52:38;;;;;;;10.73;3.57;;;;;;;26.10;41.44;101258.50;5051755;28;20021;-49
2022/06/22 10:55:34;;;;;;;9.85;3.55;;;;;;;26.18;39.84;101266.25;5049089;28;20291;-48
2022/06/22 10:58:02;;;;;;;10.40;3.10;;;;;;;26.20;37.64;101266.00;5051113;28;20397;-48
2022/06/22 11:00:27;;;;;;;11.20;2.92;;;;;;;26.36;39.57;101270.59;5051172;28;20480;-48
2022/06/22 11:03:17;;;;;;;11.35;3.83;;;;;;;26.33;40.39;101271.09;5049113;28;20287;-47
2022/06/22 11:06:14;;;;;;;8.50;3.83;;;;;;;26.37;39.75;101277.69;5038484;28;20036;-51
2022/06/22 11:08:48;;;;;;;18.70;3.70;;;;;;;26.37;41.72;101271.41;5025216;28;20025;-47
2022/06/22 11:11:41;;;;;;;12.82;4.07;;;;;;;26.33;40.49;101273.00;5036436;28;20029;-46
2022/06/22 11:14:34;;;;;;;13.70;3.92;;;;;;;26.60;40.73;101273.84;5036219;28;20090;-46
2022/06/22 11:17:30;;;;;;;8.60;3.42;;;;;;;26.69;39.86;101273.41;5037490;28;20549;-51
2022/06/22 11:20:25;;;;;;;14.48;4.30;;;;;;;26.48;40.35;101272.34;5037560;28;20261;-47
2022/06/22 11:23:00;;;;;;;9.35;4.00;;;;;;;26.46;41.59;101271.78;5037876;28;20495;-51
2022/06/22 11:31:57;;;;;;;9.77;3.58;;;;;;;26.47;38.72;101266.03;5036991;28;20039;-46
2022/06/22 11:34:35;;;;;;;7.85;2.90;;;;;;;26.71;39.92;101269.31;5037217;28;20452;-46
2022/06/22 11:37:26;;;;;;;8.68;3.10;;;;;;;26.92;39.81;101270.34;5036753;28;20222;-49
2022/06/22 11:40:17;;;;;;;13.50;3.22;;;;;;;26.97;38.89;101270.41;5027916;28;20108;-45
2022/06/22 11:43:11;;;;;;;7.43;2.80;;;;;;;26.78;35.56;101267.22;5035395;28;20461;-45
2022/06/22 11:45:51;;;;;;;14.88;3.00;;;;;;;26.65;36.25;101275.84;5037647;28;20528;-49
2022/06/22 11:48:57;;;;;;;11.77;3.55;;;;;;;26.74;37.44;101282.50;5037313;28;20029;-48
2022/06/22 11:52:08;;;;;;;9.15;3.15;;;;;;;26.92;38.31;101275.84;4998707;28;20168;-49
2022/06/22 11:55:21;;;;;;;12.68;3.28;;;;;;;26.86;36.52;101273.31;5035880;28;20123;-46
2022/06/22 11:58:11;;;;;;;11.20;2.80;;;;;;;26.91;34.99;101270.63;4954839;28;20077;-48
2022/06/22 12:01:13;;;;;;;9.37;3.13;;;;;;;27.13;34.88;101267.78;4955709;28;20040;-47
2022/06/22 12:04:00;;;;;;;8.10;2.67;;;;;;;27.16;35.80;101265.34;5023403;28;20275;-48
2022/06/22 12:06:56;;;;;;;9.20;3.10;;;;;;;27.41;36.78;101266.66;5034120;28;20060;-51
2022/06/22 12:09:47;;;;;;;6.68;2.72;;;;;;;27.63;35.65;101263.78;5029947;28;20465;-49
2022/06/22 12:12:29;;;;;;;8.15;2.50;;;;;;;27.61;34.62;101262.38;5009748;28;20418;-48
2022/06/22 12:15:16;;;;;;;12.25;2.75;;;;;;;27.65;34.50;101263.53;5033632;28;20090;-44
2022/06/22 12:17:54;;;;;;;5.68;2.50;;;;;;;27.59;33.18;101259.06;5035704;28;20029;-48